sensor_id;sensor_type;location;lat;lon;timestamp;temperature;humidity
18502;DHT22;68437;52.236;5.710;2023-12-22T00:00:23;6.20;99.90
18502;DHT22;68437;52.236;5.710;2023-12-22T00:02:50;6.30;99.90
18502;DHT22;68437;52.236;5.710;2023-12-22T00:05:17;6.30;99.90
18502;DHT22;68437;52.236;5.710;2023-12-22T00:07:43;6.40;99.90
18502;DHT22;68437;52.236;5.710;2023-12-22T00:10:10;6.40;99.90
18502;DHT22;68437;52.236;5.710;2023-12-22T00:12:40;6.40;99.90
18502;DHT22;68437;52.236;5.710;2023-12-22T00:15:07;6.30;99.90
18502;DHT22;68437;52.236;5.710;2023-12-22T00:17:34;6.40;99.90
18502;DHT22;68437;52.236;5.710;2023-12-22T00:20:00;6.40;99.90
18502;DHT22;68437;52.236;5.710;2023-12-22T00:22:28;6.50;99.90
18502;DHT22;68437;52.236;5.710;2023-12-22T00:24:55;6.70;99.90
18502;DHT22;68437;52.236;5.710;2023-12-22T00:27:22;6.80;99.90
18502;DHT22;68437;52.236;5.710;2023-12-22T00:29:50;6.70;99.90
18502;DHT22;68437;52.236;5.710;2023-12-22T00:32:17;6.70;99.90
18502;DHT22;68437;52.236;5.710;2023-12-22T00:34:43;6.80;99.90
18502;DHT22;68437;52.236;5.710;2023-12-22T00:37:10;6.80;99.90
18502;DHT22;68437;52.236;5.710;2023-12-22T00:39:37;6.80;99.90
18502;DHT22;68437;52.236;5.710;2023-12-22T00:42:04;6.80;99.90
18502;DHT22;68437;52.236;5.710;2023-12-22T00:44:34;6.70;99.90
18502;DHT22;68437;52.236;5.710;2023-12-22T00:47:02;6.60;99.90
18502;DHT22;68437;52.236;5.710;2023-12-22T00:49:29;6.60;99.90
18502;DHT22;68437;52.236;5.710;2023-12-22T00:51:56;6.60;99.90
18502;DHT22;68437;52.236;5.710;2023-12-22T00:54:23;6.50;99.90
18502;DHT22;68437;52.236;5.710;2023-12-22T00:56:50;6.50;99.90
18502;DHT22;68437;52.236;5.710;2023-12-22T00:59:17;6.50;99.90
18502;DHT22;68437;52.236;5.710;2023-12-22T01:01:44;6.40;99.90
18502;DHT22;68437;52.236;5.710;2023-12-22T01:04:12;6.30;99.90
18502;DHT22;68437;52.236;5.710;2023-12-22T01:06:42;6.30;99.90
18502;DHT22;68437;52.236;5.710;2023-12-22T01:09:09;6.20;99.90
18502;DHT22;68437;52.236;5.710;2023-12-22T01:11:36;6.20;99.90
18502;DHT22;68437;52.236;5.710;2023-12-22T01:14:02;6.20;99.90
18502;DHT22;68437;52.236;5.710;2023-12-22T01:16:29;6.20;99.90
18502;DHT22;68437;52.236;5.710;2023-12-22T01:18:59;6.20;99.90
18502;DHT22;68437;52.236;5.710;2023-12-22T01:21:30;6.30;99.90
18502;DHT22;68437;52.236;5.710;2023-12-22T01:23:57;6.20;99.90
18502;DHT22;68437;52.236;5.710;2023-12-22T01:26:24;6.20;99.90
18502;DHT22;68437;52.236;5.710;2023-12-22T01:28:51;6.30;99.90
18502;DHT22;68437;52.236;5.710;2023-12-22T01:31:18;6.40;99.90
18502;DHT22;68437;52.236;5.710;2023-12-22T01:33:45;6.40;99.90
18502;DHT22;68437;52.236;5.710;2023-12-22T01:36:16;6.50;99.90
18502;DHT22;68437;52.236;5.710;2023-12-22T01:38:44;6.50;99.90
18502;DHT22;68437;52.236;5.710;2023-12-22T01:41:11;6.50;99.90
18502;DHT22;68437;52.236;5.710;2023-12-22T01:43:37;6.50;99.90
18502;DHT22;68437;52.236;5.710;2023-12-22T01:46:05;6.50;99.90
18502;DHT22;68437;52.236;5.710;2023-12-22T01:48:33;6.40;99.90
18502;DHT22;68437;52.236;5.710;2023-12-22T01:51:01;6.40;99.90
18502;DHT22;68437;52.236;5.710;2023-12-22T01:53:32;6.40;99.90
18502;DHT22;68437;52.236;5.710;2023-12-22T01:56:01;6.40;99.90
18502;DHT22;68437;52.236;5.710;2023-12-22T01:58:29;6.40;99.90
18502;DHT22;68437;52.236;5.710;2023-12-22T02:00:57;6.30;99.90
18502;DHT22;68437;52.236;5.710;2023-12-22T02:03:24;6.30;99.90
18502;DHT22;68437;52.236;5.710;2023-12-22T02:05:51;6.30;99.90
18502;DHT22;68437;52.236;5.710;2023-12-22T02:08:18;6.30;99.90
18502;DHT22;68437;52.236;5.710;2023-12-22T02:10:46;6.20;99.90
18502;DHT22;68437;52.236;5.710;2023-12-22T02:13:15;6.20;99.90
18502;DHT22;68437;52.236;5.710;2023-12-22T02:15:41;6.20;99.90
18502;DHT22;68437;52.236;5.710;2023-12-22T02:18:14;6.20;99.90
18502;DHT22;68437;52.236;5.710;2023-12-22T02:20:43;6.20;99.90
18502;DHT22;68437;52.236;5.710;2023-12-22T02:23:12;6.10;99.90
18502;DHT22;68437;52.236;5.710;2023-12-22T02:25:38;6.10;99.90
18502;DHT22;68437;52.236;5.710;2023-12-22T02:28:07;6.10;99.90
18502;DHT22;68437;52.236;5.710;2023-12-22T02:30:41;6.10;99.90
18502;DHT22;68437;52.236;5.710;2023-12-22T02:33:10;6.10;99.90
18502;DHT22;68437;52.236;5.710;2023-12-22T02:35:42;6.10;99.90
18502;DHT22;68437;52.236;5.710;2023-12-22T02:38:12;6.10;99.90
18502;DHT22;68437;52.236;5.710;2023-12-22T02:40:39;6.10;99.90
18502;DHT22;68437;52.236;5.710;2023-12-22T02:43:07;6.20;99.90
18502;DHT22;68437;52.236;5.710;2023-12-22T02:45:34;6.10;99.90
18502;DHT22;68437;52.236;5.710;2023-12-22T02:48:04;6.10;99.90
18502;DHT22;68437;52.236;5.710;2023-12-22T02:50:31;5.10;99.90
18502;DHT22;68437;52.236;5.710;2023-12-22T02:52:57;4.70;99.90
18502;DHT22;68437;52.236;5.710;2023-12-22T02:55:26;4.40;99.90
18502;DHT22;68437;52.236;5.710;2023-12-22T02:57:52;4.40;99.90
18502;DHT22;68437;52.236;5.710;2023-12-22T03:00:19;4.30;99.90
18502;DHT22;68437;52.236;5.710;2023-12-22T03:02:49;4.30;99.90
18502;DHT22;68437;52.236;5.710;2023-12-22T03:05:16;4.20;99.90
18502;DHT22;68437;52.236;5.710;2023-12-22T03:07:43;4.30;99.90
18502;DHT22;68437;52.236;5.710;2023-12-22T03:10:10;4.30;99.90
18502;DHT22;68437;52.236;5.710;2023-12-22T03:12:38;4.40;99.90
18502;DHT22;68437;52.236;5.710;2023-12-22T03:15:06;4.50;99.90
18502;DHT22;68437;52.236;5.710;2023-12-22T03:17:33;4.50;99.90
18502;DHT22;68437;52.236;5.710;2023-12-22T03:20:00;4.60;99.90
18502;DHT22;68437;52.236;5.710;2023-12-22T03:22:26;4.70;99.90
18502;DHT22;68437;52.236;5.710;2023-12-22T03:24:53;4.80;99.90
18502;DHT22;68437;52.236;5.710;2023-12-22T03:27:20;4.80;99.90
18502;DHT22;68437;52.236;5.710;2023-12-22T03:29:48;4.80;99.90
18502;DHT22;68437;52.236;5.710;2023-12-22T03:32:15;4.70;99.90
18502;DHT22;68437;52.236;5.710;2023-12-22T03:34:45;4.70;99.90
18502;DHT22;68437;52.236;5.710;2023-12-22T03:37:11;4.70;99.90
18502;DHT22;68437;52.236;5.710;2023-12-22T03:39:38;4.60;99.90
18502;DHT22;68437;52.236;5.710;2023-12-22T03:42:05;4.70;99.90
18502;DHT22;68437;52.236;5.710;2023-12-22T03:44:32;4.70;99.90
18502;DHT22;68437;52.236;5.710;2023-12-22T03:47:00;4.70;99.90
18502;DHT22;68437;52.236;5.710;2023-12-22T03:49:27;4.70;99.90
18502;DHT22;68437;52.236;5.710;2023-12-22T03:51:56;4.70;99.90
18502;DHT22;68437;52.236;5.710;2023-12-22T03:54:23;4.60;99.90
18502;DHT22;68437;52.236;5.710;2023-12-22T03:56:50;4.70;99.90
18502;DHT22;68437;52.236;5.710;2023-12-22T03:59:17;4.60;99.90
18502;DHT22;68437;52.236;5.710;2023-12-22T04:01:44;4.60;99.90
18502;DHT22;68437;52.236;5.710;2023-12-22T04:04:17;4.60;99.90
18502;DHT22;68437;52.236;5.710;2023-12-22T04:06:44;4.60;99.90
18502;DHT22;68437;52.236;5.710;2023-12-22T04:09:11;4.60;99.90
18502;DHT22;68437;52.236;5.710;2023-12-22T04:11:40;4.60;99.90
18502;DHT22;68437;52.236;5.710;2023-12-22T04:14:07;4.60;99.90
18502;DHT22;68437;52.236;5.710;2023-12-22T04:16:36;4.70;99.90
18502;DHT22;68437;52.236;5.710;2023-12-22T04:19:03;4.70;99.90
18502;DHT22;68437;52.236;5.710;2023-12-22T04:21:31;4.80;99.90
18502;DHT22;68437;52.236;5.710;2023-12-22T04:23:58;4.90;99.90
18502;DHT22;68437;52.236;5.710;2023-12-22T04:26:25;4.90;99.90
18502;DHT22;68437;52.236;5.710;2023-12-22T04:28:52;5.00;99.90
18502;DHT22;68437;52.236;5.710;2023-12-22T04:31:18;5.10;99.90
18502;DHT22;68437;52.236;5.710;2023-12-22T04:33:45;5.10;99.90
18502;DHT22;68437;52.236;5.710;2023-12-22T04:36:12;5.20;99.90
18502;DHT22;68437;52.236;5.710;2023-12-22T04:38:43;5.30;99.90
18502;DHT22;68437;52.236;5.710;2023-12-22T04:41:10;5.40;99.90
18502;DHT22;68437;52.236;5.710;2023-12-22T04:43:36;5.50;99.90
18502;DHT22;68437;52.236;5.710;2023-12-22T04:46:03;5.60;99.90
18502;DHT22;68437;52.236;5.710;2023-12-22T04:48:30;5.60;99.90
18502;DHT22;68437;52.236;5.710;2023-12-22T04:50:58;5.60;99.90
18502;DHT22;68437;52.236;5.710;2023-12-22T04:53:25;5.60;99.90
18502;DHT22;68437;52.236;5.710;2023-12-22T04:55:53;5.50;99.90
18502;DHT22;68437;52.236;5.710;2023-12-22T04:58:20;5.60;99.90
18502;DHT22;68437;52.236;5.710;2023-12-22T05:00:47;5.60;99.90
18502;DHT22;68437;52.236;5.710;2023-12-22T05:03:15;5.60;99.90
18502;DHT22;68437;52.236;5.710;2023-12-22T05:05:41;5.60;99.90
18502;DHT22;68437;52.236;5.710;2023-12-22T05:08:08;5.60;99.90
18502;DHT22;68437;52.236;5.710;2023-12-22T05:10:35;5.60;99.90
18502;DHT22;68437;52.236;5.710;2023-12-22T05:13:03;5.60;99.90
18502;DHT22;68437;52.236;5.710;2023-12-22T05:15:30;5.60;99.90
18502;DHT22;68437;52.236;5.710;2023-12-22T05:17:57;5.60;99.90
18502;DHT22;68437;52.236;5.710;2023-12-22T05:20:23;5.60;99.90
18502;DHT22;68437;52.236;5.710;2023-12-22T05:22:50;5.60;99.90
18502;DHT22;68437;52.236;5.710;2023-12-22T05:25:17;5.60;99.90
18502;DHT22;68437;52.236;5.710;2023-12-22T05:27:44;5.40;99.90
18502;DHT22;68437;52.236;5.710;2023-12-22T05:30:13;5.50;99.90
18502;DHT22;68437;52.236;5.710;2023-12-22T05:32:40;5.50;99.90
18502;DHT22;68437;52.236;5.710;2023-12-22T05:35:07;5.50;99.90
18502;DHT22;68437;52.236;5.710;2023-12-22T05:37:35;5.50;99.90
18502;DHT22;68437;52.236;5.710;2023-12-22T05:40:03;5.50;99.90
18502;DHT22;68437;52.236;5.710;2023-12-22T05:42:32;5.60;99.90
18502;DHT22;68437;52.236;5.710;2023-12-22T05:44:58;5.70;99.90
18502;DHT22;68437;52.236;5.710;2023-12-22T05:47:27;5.70;99.90
18502;DHT22;68437;52.236;5.710;2023-12-22T05:49:53;5.70;99.90
18502;DHT22;68437;52.236;5.710;2023-12-22T05:52:20;5.70;99.90
18502;DHT22;68437;52.236;5.710;2023-12-22T05:54:47;5.60;99.90
18502;DHT22;68437;52.236;5.710;2023-12-22T05:57:14;5.60;99.90
18502;DHT22;68437;52.236;5.710;2023-12-22T05:59:40;5.60;99.90
18502;DHT22;68437;52.236;5.710;2023-12-22T06:02:07;5.60;99.90
18502;DHT22;68437;52.236;5.710;2023-12-22T06:04:35;5.50;99.90
18502;DHT22;68437;52.236;5.710;2023-12-22T06:07:02;5.50;99.90
18502;DHT22;68437;52.236;5.710;2023-12-22T06:09:30;5.50;99.90
18502;DHT22;68437;52.236;5.710;2023-12-22T06:11:58;5.50;99.90
18502;DHT22;68437;52.236;5.710;2023-12-22T06:14:27;5.50;99.90
18502;DHT22;68437;52.236;5.710;2023-12-22T06:16:54;5.60;99.90
18502;DHT22;68437;52.236;5.710;2023-12-22T06:19:23;5.60;99.90
18502;DHT22;68437;52.236;5.710;2023-12-22T06:21:55;5.60;99.90
18502;DHT22;68437;52.236;5.710;2023-12-22T06:24:22;5.70;99.90
18502;DHT22;68437;52.236;5.710;2023-12-22T06:26:49;5.70;99.90
18502;DHT22;68437;52.236;5.710;2023-12-22T06:29:16;5.80;99.90
18502;DHT22;68437;52.236;5.710;2023-12-22T06:31:42;6.00;99.90
18502;DHT22;68437;52.236;5.710;2023-12-22T06:34:08;6.10;99.90
18502;DHT22;68437;52.236;5.710;2023-12-22T06:36:35;6.20;99.90
18502;DHT22;68437;52.236;5.710;2023-12-22T06:39:03;6.20;99.90
18502;DHT22;68437;52.236;5.710;2023-12-22T06:41:31;6.20;99.90
18502;DHT22;68437;52.236;5.710;2023-12-22T06:43:58;6.20;99.90
18502;DHT22;68437;52.236;5.710;2023-12-22T06:46:26;6.10;99.90
18502;DHT22;68437;52.236;5.710;2023-12-22T06:48:53;6.10;99.90
18502;DHT22;68437;52.236;5.710;2023-12-22T06:51:21;6.00;99.90
18502;DHT22;68437;52.236;5.710;2023-12-22T06:53:48;6.00;99.90
18502;DHT22;68437;52.236;5.710;2023-12-22T06:56:17;6.00;99.90
18502;DHT22;68437;52.236;5.710;2023-12-22T06:58:44;6.00;99.90
18502;DHT22;68437;52.236;5.710;2023-12-22T07:01:13;6.00;99.90
18502;DHT22;68437;52.236;5.710;2023-12-22T07:03:43;6.20;99.90
18502;DHT22;68437;52.236;5.710;2023-12-22T07:06:10;6.30;99.90
18502;DHT22;68437;52.236;5.710;2023-12-22T07:08:37;6.50;99.90
18502;DHT22;68437;52.236;5.710;2023-12-22T07:11:04;6.50;99.90
18502;DHT22;68437;52.236;5.710;2023-12-22T07:13:34;6.60;99.90
18502;DHT22;68437;52.236;5.710;2023-12-22T07:16:01;6.60;99.90
18502;DHT22;68437;52.236;5.710;2023-12-22T07:18:28;6.70;99.90
18502;DHT22;68437;52.236;5.710;2023-12-22T07:20:56;6.80;99.90
18502;DHT22;68437;52.236;5.710;2023-12-22T07:23:28;6.90;99.90
18502;DHT22;68437;52.236;5.710;2023-12-22T07:25:55;6.90;99.90
18502;DHT22;68437;52.236;5.710;2023-12-22T07:28:22;7.00;99.90
18502;DHT22;68437;52.236;5.710;2023-12-22T07:30:50;7.00;99.90
18502;DHT22;68437;52.236;5.710;2023-12-22T07:33:17;7.10;99.90
18502;DHT22;68437;52.236;5.710;2023-12-22T07:35:43;7.10;99.90
18502;DHT22;68437;52.236;5.710;2023-12-22T07:38:10;7.10;99.90
18502;DHT22;68437;52.236;5.710;2023-12-22T07:40:37;7.20;99.90
18502;DHT22;68437;52.236;5.710;2023-12-22T07:43:04;7.10;99.90
18502;DHT22;68437;52.236;5.710;2023-12-22T07:45:31;7.10;99.90
18502;DHT22;68437;52.236;5.710;2023-12-22T07:47:59;7.40;99.90
18502;DHT22;68437;52.236;5.710;2023-12-22T07:50:26;7.10;99.90
18502;DHT22;68437;52.236;5.710;2023-12-22T07:52:53;7.20;99.90
18502;DHT22;68437;52.236;5.710;2023-12-22T07:55:19;7.20;99.90
18502;DHT22;68437;52.236;5.710;2023-12-22T07:57:46;7.20;99.90
18502;DHT22;68437;52.236;5.710;2023-12-22T08:00:14;7.30;99.90
18502;DHT22;68437;52.236;5.710;2023-12-22T08:02:43;7.30;99.90
18502;DHT22;68437;52.236;5.710;2023-12-22T08:05:13;7.40;99.90
18502;DHT22;68437;52.236;5.710;2023-12-22T08:07:43;7.50;99.90
18502;DHT22;68437;52.236;5.710;2023-12-22T08:10:10;7.40;99.90
18502;DHT22;68437;52.236;5.710;2023-12-22T08:12:37;7.40;99.90
18502;DHT22;68437;52.236;5.710;2023-12-22T08:15:04;7.20;99.90
18502;DHT22;68437;52.236;5.710;2023-12-22T08:17:32;7.10;99.90
18502;DHT22;68437;52.236;5.710;2023-12-22T08:19:59;7.10;99.90
18502;DHT22;68437;52.236;5.710;2023-12-22T08:22:27;7.00;99.90
18502;DHT22;68437;52.236;5.710;2023-12-22T08:24:53;7.00;99.90
18502;DHT22;68437;52.236;5.710;2023-12-22T08:27:20;7.00;99.90
18502;DHT22;68437;52.236;5.710;2023-12-22T08:29:47;7.00;99.90
18502;DHT22;68437;52.236;5.710;2023-12-22T08:32:14;7.00;99.90
18502;DHT22;68437;52.236;5.710;2023-12-22T08:34:41;7.10;99.90
18502;DHT22;68437;52.236;5.710;2023-12-22T08:37:07;7.10;99.90
18502;DHT22;68437;52.236;5.710;2023-12-22T08:39:36;7.00;99.90
18502;DHT22;68437;52.236;5.710;2023-12-22T08:42:03;7.00;99.90
18502;DHT22;68437;52.236;5.710;2023-12-22T08:44:30;7.00;99.90
18502;DHT22;68437;52.236;5.710;2023-12-22T08:46:56;7.00;99.90
18502;DHT22;68437;52.236;5.710;2023-12-22T08:49:23;7.00;99.90
18502;DHT22;68437;52.236;5.710;2023-12-22T08:51:50;6.90;99.90
18502;DHT22;68437;52.236;5.710;2023-12-22T08:54:17;6.90;99.90
18502;DHT22;68437;52.236;5.710;2023-12-22T08:56:45;7.00;99.90
18502;DHT22;68437;52.236;5.710;2023-12-22T08:59:14;6.90;99.90
18502;DHT22;68437;52.236;5.710;2023-12-22T09:01:40;7.00;99.90
18502;DHT22;68437;52.236;5.710;2023-12-22T09:04:09;7.00;99.90
18502;DHT22;68437;52.236;5.710;2023-12-22T09:06:36;7.00;99.90
18502;DHT22;68437;52.236;5.710;2023-12-22T09:09:03;7.00;99.90
18502;DHT22;68437;52.236;5.710;2023-12-22T09:11:31;7.10;99.90
18502;DHT22;68437;52.236;5.710;2023-12-22T09:13:59;7.20;99.90
18502;DHT22;68437;52.236;5.710;2023-12-22T09:16:26;7.20;99.90
18502;DHT22;68437;52.236;5.710;2023-12-22T09:18:53;7.30;99.90
18502;DHT22;68437;52.236;5.710;2023-12-22T09:21:20;7.40;99.90
18502;DHT22;68437;52.236;5.710;2023-12-22T09:23:47;7.40;99.90
18502;DHT22;68437;52.236;5.710;2023-12-22T09:26:15;7.50;99.90
18502;DHT22;68437;52.236;5.710;2023-12-22T09:28:43;7.60;99.90
18502;DHT22;68437;52.236;5.710;2023-12-22T09:31:12;7.60;99.90
18502;DHT22;68437;52.236;5.710;2023-12-22T09:33:40;7.70;99.90
18502;DHT22;68437;52.236;5.710;2023-12-22T09:36:07;7.70;99.90
18502;DHT22;68437;52.236;5.710;2023-12-22T09:38:34;7.80;99.90
18502;DHT22;68437;52.236;5.710;2023-12-22T09:41:03;7.80;99.90
18502;DHT22;68437;52.236;5.710;2023-12-22T09:43:34;7.80;99.90
18502;DHT22;68437;52.236;5.710;2023-12-22T09:46:02;7.80;99.90
18502;DHT22;68437;52.236;5.710;2023-12-22T09:48:34;7.90;99.90
18502;DHT22;68437;52.236;5.710;2023-12-22T09:51:05;7.90;99.90
18502;DHT22;68437;52.236;5.710;2023-12-22T09:53:33;7.90;99.90
18502;DHT22;68437;52.236;5.710;2023-12-22T09:56:02;7.90;99.90
18502;DHT22;68437;52.236;5.710;2023-12-22T09:58:30;7.90;99.90
18502;DHT22;68437;52.236;5.710;2023-12-22T10:01:02;7.80;99.90
18502;DHT22;68437;52.236;5.710;2023-12-22T10:03:31;7.80;99.90
18502;DHT22;68437;52.236;5.710;2023-12-22T10:06:00;7.80;99.90
18502;DHT22;68437;52.236;5.710;2023-12-22T10:08:28;7.70;99.90
18502;DHT22;68437;52.236;5.710;2023-12-22T10:10:55;7.70;99.90
18502;DHT22;68437;52.236;5.710;2023-12-22T10:13:22;7.60;99.90
18502;DHT22;68437;52.236;5.710;2023-12-22T10:15:49;7.60;99.90
18502;DHT22;68437;52.236;5.710;2023-12-22T10:18:17;7.50;99.90
18502;DHT22;68437;52.236;5.710;2023-12-22T10:20:44;7.50;99.90
18502;DHT22;68437;52.236;5.710;2023-12-22T10:23:13;7.50;99.90
18502;DHT22;68437;52.236;5.710;2023-12-22T10:25:40;7.50;99.90
18502;DHT22;68437;52.236;5.710;2023-12-22T10:28:10;7.60;99.90
18502;DHT22;68437;52.236;5.710;2023-12-22T10:30:39;7.60;99.90
18502;DHT22;68437;52.236;5.710;2023-12-22T10:33:07;7.70;99.90
18502;DHT22;68437;52.236;5.710;2023-12-22T10:35:33;7.70;99.90
18502;DHT22;68437;52.236;5.710;2023-12-22T10:38:00;7.80;99.90
18502;DHT22;68437;52.236;5.710;2023-12-22T10:40:29;7.90;99.90
18502;DHT22;68437;52.236;5.710;2023-12-22T10:42:56;7.90;99.90
18502;DHT22;68437;52.236;5.710;2023-12-22T10:45:23;8.00;99.90
18502;DHT22;68437;52.236;5.710;2023-12-22T10:47:50;8.00;99.90
18502;DHT22;68437;52.236;5.710;2023-12-22T10:50:19;8.20;99.90
18502;DHT22;68437;52.236;5.710;2023-12-22T10:52:49;8.20;99.90
18502;DHT22;68437;52.236;5.710;2023-12-22T10:55:19;8.30;99.90
18502;DHT22;68437;52.236;5.710;2023-12-22T10:57:47;8.30;99.90
18502;DHT22;68437;52.236;5.710;2023-12-22T11:00:16;8.30;99.90
18502;DHT22;68437;52.236;5.710;2023-12-22T11:02:43;8.30;99.90
18502;DHT22;68437;52.236;5.710;2023-12-22T11:05:14;8.30;99.90
18502;DHT22;68437;52.236;5.710;2023-12-22T11:07:47;8.30;99.90
18502;DHT22;68437;52.236;5.710;2023-12-22T11:10:18;8.30;99.90
18502;DHT22;68437;52.236;5.710;2023-12-22T11:12:48;8.30;99.90
18502;DHT22;68437;52.236;5.710;2023-12-22T11:15:18;8.40;99.90
18502;DHT22;68437;52.236;5.710;2023-12-22T11:17:46;8.40;99.90
18502;DHT22;68437;52.236;5.710;2023-12-22T11:20:16;8.50;99.90
18502;DHT22;68437;52.236;5.710;2023-12-22T11:22:43;8.50;99.90
18502;DHT22;68437;52.236;5.710;2023-12-22T11:25:11;8.60;99.90
18502;DHT22;68437;52.236;5.710;2023-12-22T11:27:38;8.60;99.90
18502;DHT22;68437;52.236;5.710;2023-12-22T11:30:08;8.60;99.90
18502;DHT22;68437;52.236;5.710;2023-12-22T11:32:41;8.70;99.90
18502;DHT22;68437;52.236;5.710;2023-12-22T11:35:08;8.70;99.90
18502;DHT22;68437;52.236;5.710;2023-12-22T11:37:38;8.70;99.90
18502;DHT22;68437;52.236;5.710;2023-12-22T11:40:06;8.70;99.90
18502;DHT22;68437;52.236;5.710;2023-12-22T11:42:36;8.70;99.90
18502;DHT22;68437;52.236;5.710;2023-12-22T11:45:11;8.70;99.90
18502;DHT22;68437;52.236;5.710;2023-12-22T11:47:43;8.70;99.90
18502;DHT22;68437;52.236;5.710;2023-12-22T11:50:10;8.80;99.90
18502;DHT22;68437;52.236;5.710;2023-12-22T11:52:38;8.80;99.90
18502;DHT22;68437;52.236;5.710;2023-12-22T11:55:05;8.80;99.90
18502;DHT22;68437;52.236;5.710;2023-12-22T11:57:34;8.80;99.90
18502;DHT22;68437;52.236;5.710;2023-12-22T12:00:03;8.90;99.90
18502;DHT22;68437;52.236;5.710;2023-12-22T12:02:33;8.90;99.90
18502;DHT22;68437;52.236;5.710;2023-12-22T12:05:01;8.90;99.90
18502;DHT22;68437;52.236;5.710;2023-12-22T12:07:44;8.90;99.90
18502;DHT22;68437;52.236;5.710;2023-12-22T12:10:13;8.90;99.90
18502;DHT22;68437;52.236;5.710;2023-12-22T12:13:04;9.00;99.90
18502;DHT22;68437;52.236;5.710;2023-12-22T12:15:33;9.00;99.90
18502;DHT22;68437;52.236;5.710;2023-12-22T12:18:04;8.90;99.90
18502;DHT22;68437;52.236;5.710;2023-12-22T12:20:32;8.90;99.90
18502;DHT22;68437;52.236;5.710;2023-12-22T12:23:00;8.90;99.90
18502;DHT22;68437;52.236;5.710;2023-12-22T12:25:28;8.90;99.90
18502;DHT22;68437;52.236;5.710;2023-12-22T12:28:01;8.90;99.90
18502;DHT22;68437;52.236;5.710;2023-12-22T12:30:28;9.00;99.90
18502;DHT22;68437;52.236;5.710;2023-12-22T12:33:05;9.00;99.90
18502;DHT22;68437;52.236;5.710;2023-12-22T12:35:37;9.00;99.90
18502;DHT22;68437;52.236;5.710;2023-12-22T12:38:10;9.00;99.90
18502;DHT22;68437;52.236;5.710;2023-12-22T12:40:39;9.10;99.90
18502;DHT22;68437;52.236;5.710;2023-12-22T12:43:06;9.00;99.90
18502;DHT22;68437;52.236;5.710;2023-12-22T12:45:33;8.90;99.90
18502;DHT22;68437;52.236;5.710;2023-12-22T12:48:01;8.90;99.90
18502;DHT22;68437;52.236;5.710;2023-12-22T12:50:28;8.90;99.90
18502;DHT22;68437;52.236;5.710;2023-12-22T12:52:58;8.80;99.90
18502;DHT22;68437;52.236;5.710;2023-12-22T12:55:26;8.80;99.90
18502;DHT22;68437;52.236;5.710;2023-12-22T12:57:55;8.70;99.90
18502;DHT22;68437;52.236;5.710;2023-12-22T13:00:24;8.70;99.90
18502;DHT22;68437;52.236;5.710;2023-12-22T13:02:52;8.70;99.90
18502;DHT22;68437;52.236;5.710;2023-12-22T13:05:21;8.60;99.90
18502;DHT22;68437;52.236;5.710;2023-12-22T13:07:50;8.60;99.90
18502;DHT22;68437;52.236;5.710;2023-12-22T13:10:22;8.70;99.90
18502;DHT22;68437;52.236;5.710;2023-12-22T13:12:50;8.70;99.90
18502;DHT22;68437;52.236;5.710;2023-12-22T13:15:19;8.80;99.90
18502;DHT22;68437;52.236;5.710;2023-12-22T13:17:47;8.90;99.90
18502;DHT22;68437;52.236;5.710;2023-12-22T13:20:14;9.00;99.90
18502;DHT22;68437;52.236;5.710;2023-12-22T13:22:43;9.10;99.90
18502;DHT22;68437;52.236;5.710;2023-12-22T13:25:13;9.10;99.90
18502;DHT22;68437;52.236;5.710;2023-12-22T13:27:48;9.20;99.90
18502;DHT22;68437;52.236;5.710;2023-12-22T13:32:57;9.30;99.90
18502;DHT22;68437;52.236;5.710;2023-12-22T13:35:24;9.30;99.90
18502;DHT22;68437;52.236;5.710;2023-12-22T13:37:52;9.30;99.90
18502;DHT22;68437;52.236;5.710;2023-12-22T13:40:22;9.30;99.90
18502;DHT22;68437;52.236;5.710;2023-12-22T13:42:55;9.30;99.90
18502;DHT22;68437;52.236;5.710;2023-12-22T13:45:22;9.30;99.90
18502;DHT22;68437;52.236;5.710;2023-12-22T13:47:49;9.30;99.90
18502;DHT22;68437;52.236;5.710;2023-12-22T13:50:19;9.30;99.90
18502;DHT22;68437;52.236;5.710;2023-12-22T13:52:48;9.40;99.90
18502;DHT22;68437;52.236;5.710;2023-12-22T13:55:17;9.40;99.90
18502;DHT22;68437;52.236;5.710;2023-12-22T13:57:45;9.50;99.90
18502;DHT22;68437;52.236;5.710;2023-12-22T14:00:29;9.50;99.90
18502;DHT22;68437;52.236;5.710;2023-12-22T14:02:57;9.50;99.90
18502;DHT22;68437;52.236;5.710;2023-12-22T14:05:24;9.40;99.90
18502;DHT22;68437;52.236;5.710;2023-12-22T14:07:53;9.40;99.90
18502;DHT22;68437;52.236;5.710;2023-12-22T14:10:20;9.30;99.90
18502;DHT22;68437;52.236;5.710;2023-12-22T14:12:46;9.30;99.90
18502;DHT22;68437;52.236;5.710;2023-12-22T14:15:13;9.40;99.90
18502;DHT22;68437;52.236;5.710;2023-12-22T14:17:41;9.40;99.90
18502;DHT22;68437;52.236;5.710;2023-12-22T14:20:09;9.40;99.90
18502;DHT22;68437;52.236;5.710;2023-12-22T14:22:37;9.40;99.90
18502;DHT22;68437;52.236;5.710;2023-12-22T14:25:04;9.30;99.90
18502;DHT22;68437;52.236;5.710;2023-12-22T14:27:31;9.20;99.90
18502;DHT22;68437;52.236;5.710;2023-12-22T14:29:58;9.10;99.90
18502;DHT22;68437;52.236;5.710;2023-12-22T14:32:25;9.00;99.90
18502;DHT22;68437;52.236;5.710;2023-12-22T14:34:53;9.00;99.90
18502;DHT22;68437;52.236;5.710;2023-12-22T14:37:19;9.00;99.90
18502;DHT22;68437;52.236;5.710;2023-12-22T14:39:46;9.00;99.90
18502;DHT22;68437;52.236;5.710;2023-12-22T14:42:13;8.90;99.90
18502;DHT22;68437;52.236;5.710;2023-12-22T14:44:40;8.90;99.90
18502;DHT22;68437;52.236;5.710;2023-12-22T14:47:07;8.90;99.90
18502;DHT22;68437;52.236;5.710;2023-12-22T14:49:34;8.90;99.90
18502;DHT22;68437;52.236;5.710;2023-12-22T14:52:02;8.90;99.90
18502;DHT22;68437;52.236;5.710;2023-12-22T14:54:29;8.90;99.90
18502;DHT22;68437;52.236;5.710;2023-12-22T14:56:58;8.90;99.90
18502;DHT22;68437;52.236;5.710;2023-12-22T14:59:29;8.90;99.90
18502;DHT22;68437;52.236;5.710;2023-12-22T15:01:56;9.00;99.90
18502;DHT22;68437;52.236;5.710;2023-12-22T15:04:22;9.00;99.90
18502;DHT22;68437;52.236;5.710;2023-12-22T15:06:49;9.00;99.90
18502;DHT22;68437;52.236;5.710;2023-12-22T15:09:20;9.10;99.90
18502;DHT22;68437;52.236;5.710;2023-12-22T15:11:49;9.10;99.90
18502;DHT22;68437;52.236;5.710;2023-12-22T15:14:17;9.20;99.90
18502;DHT22;68437;52.236;5.710;2023-12-22T15:16:44;9.20;99.90
18502;DHT22;68437;52.236;5.710;2023-12-22T15:19:13;9.30;99.90
18502;DHT22;68437;52.236;5.710;2023-12-22T15:21:40;9.30;99.90
18502;DHT22;68437;52.236;5.710;2023-12-22T15:24:10;9.30;99.90
18502;DHT22;68437;52.236;5.710;2023-12-22T15:26:40;9.20;99.90
18502;DHT22;68437;52.236;5.710;2023-12-22T15:29:08;9.30;99.90
18502;DHT22;68437;52.236;5.710;2023-12-22T15:31:35;9.30;99.90
18502;DHT22;68437;52.236;5.710;2023-12-22T15:34:02;9.30;99.90
18502;DHT22;68437;52.236;5.710;2023-12-22T15:36:30;9.40;99.90
18502;DHT22;68437;52.236;5.710;2023-12-22T15:38:57;9.40;99.90
18502;DHT22;68437;52.236;5.710;2023-12-22T15:41:27;9.40;99.90
18502;DHT22;68437;52.236;5.710;2023-12-22T15:43:59;9.50;99.90
18502;DHT22;68437;52.236;5.710;2023-12-22T15:46:25;9.50;99.90
18502;DHT22;68437;52.236;5.710;2023-12-22T15:48:52;9.60;99.90
18502;DHT22;68437;52.236;5.710;2023-12-22T15:51:20;9.60;99.90